createdAt,value
2023-02-27T00:00:47.547Z,82.60
2023-02-27T00:03:27.404Z,82.70
2023-02-27T00:05:56.588Z,82.70
2023-02-27T00:08:25.235Z,83.00
2023-02-27T00:10:53.864Z,83.20
2023-02-27T00:13:21.648Z,83.40
2023-02-27T00:15:50.790Z,83.40
2023-02-27T00:18:18.517Z,83.50
2023-02-27T00:20:46.549Z,83.50
2023-02-27T00:23:16.166Z,83.50
2023-02-27T00:25:44.739Z,83.70
2023-02-27T00:28:12.830Z,83.80
2023-02-27T00:30:41.154Z,83.90
2023-02-27T00:33:09.488Z,83.90
2023-02-27T00:35:37.860Z,84.00
2023-02-27T00:38:05.696Z,84.00
2023-02-27T00:40:36.257Z,84.20
2023-02-27T00:43:05.067Z,84.40
2023-02-27T00:45:33.329Z,84.50
2023-02-27T00:48:01.711Z,84.60
2023-02-27T00:50:29.811Z,84.80
2023-02-27T00:52:57.533Z,84.90
2023-02-27T00:55:27.218Z,85.10
2023-02-27T00:57:55.346Z,85.20
2023-02-27T01:00:23.895Z,85.20
2023-02-27T01:02:51.909Z,85.30
2023-02-27T01:05:20.597Z,85.30
2023-02-27T01:07:48.262Z,85.30
2023-02-27T01:10:17.123Z,85.30
2023-02-27T01:12:44.711Z,85.20
2023-02-27T01:15:13.416Z,85.20
2023-02-27T01:17:42.768Z,85.10
2023-02-27T01:20:13.021Z,85.00
2023-02-27T01:22:40.944Z,84.90
2023-02-27T01:25:09.734Z,84.90
2023-02-27T01:27:41.464Z,84.80
2023-02-27T01:30:11.795Z,84.80
2023-02-27T01:32:39.668Z,84.70
2023-02-27T01:35:08.267Z,84.80
2023-02-27T01:37:36.026Z,84.80
2023-02-27T01:40:09.591Z,84.80
2023-02-27T01:42:37.414Z,84.80
2023-02-27T01:45:13.940Z,84.70
2023-02-27T01:47:49.744Z,84.70
2023-02-27T01:50:19.625Z,84.70
2023-02-27T01:52:53.592Z,84.70
2023-02-27T01:55:24.572Z,84.70
2023-02-27T01:57:54.737Z,84.60
2023-02-27T02:00:23.705Z,84.50
2023-02-27T02:03:18.053Z,84.40
2023-02-27T02:05:47.164Z,84.30
2023-02-27T02:08:20.480Z,84.40
2023-02-27T02:10:51.608Z,84.40
2023-02-27T02:13:21.010Z,84.40
2023-02-27T02:16:19.804Z,84.30
2023-02-27T02:19:04.147Z,84.20
2023-02-27T02:21:53.557Z,84.20
2023-02-27T02:24:33.767Z,84.10
2023-02-27T02:27:12.403Z,84.10
2023-02-27T02:30:21.504Z,84.00
2023-02-27T02:33:20.799Z,84.10
2023-02-27T02:36:07.579Z,84.30
2023-02-27T02:38:57.189Z,84.40
2023-02-27T02:41:49.637Z,84.50
2023-02-27T02:44:49.295Z,84.50
2023-02-27T02:47:27.625Z,84.50
2023-02-27T02:50:03.618Z,84.60
2023-02-27T02:53:17.143Z,84.70
2023-02-27T02:56:00.721Z,84.70
2023-02-27T02:58:56.601Z,84.70
2023-02-27T03:01:33.038Z,84.70
2023-02-27T03:04:13.549Z,84.60
2023-02-27T03:06:48.679Z,84.60
2023-02-27T03:09:22.005Z,84.50
2023-02-27T03:11:54.359Z,84.40
2023-02-27T03:14:29.031Z,84.40
2023-02-27T03:17:02.444Z,84.50
2023-02-27T03:19:58.577Z,84.50
2023-02-27T03:22:31.359Z,84.50
2023-02-27T03:25:01.764Z,84.60
2023-02-27T03:27:38.842Z,84.50
2023-02-27T03:30:19.660Z,84.50
2023-02-27T03:33:01.480Z,84.50
2023-02-27T03:35:46.397Z,84.60
2023-02-27T03:38:50.623Z,84.70
2023-02-27T03:41:36.974Z,84.70
2023-02-27T03:44:40.233Z,84.70
2023-02-27T03:47:08.138Z,84.70
2023-02-27T03:49:36.754Z,84.70
2023-02-27T03:52:05.890Z,84.60
2023-02-27T03:54:38.625Z,84.40
2023-02-27T03:57:08.916Z,84.20
2023-02-27T03:59:38.708Z,83.90
2023-02-27T04:02:06.777Z,83.70
2023-02-27T04:04:36.767Z,83.60
2023-02-27T04:07:25.013Z,83.50
2023-02-27T04:10:14.154Z,83.40
2023-02-27T04:13:12.516Z,83.40
2023-02-27T04:16:18.710Z,83.10
2023-02-27T04:18:56.899Z,82.90
2023-02-27T04:21:46.925Z,82.70
2023-02-27T04:24:42.101Z,82.40
2023-02-27T04:27:37.581Z,82.30
2023-02-27T04:30:20.426Z,82.30
2023-02-27T04:33:13.194Z,82.20
2023-02-27T04:35:55.182Z,82.20
2023-02-27T04:38:53.606Z,82.00
2023-02-27T04:41:33.095Z,82.00
2023-02-27T04:44:02.621Z,81.90
2023-02-27T04:46:32.668Z,82.10
2023-02-27T04:49:13.403Z,82.50
2023-02-27T04:51:52.624Z,83.00
2023-02-27T04:54:53.496Z,83.50
2023-02-27T04:57:32.267Z,83.80
2023-02-27T05:00:05.604Z,83.90
2023-02-27T05:02:50.029Z,84.00
2023-02-27T05:05:26.162Z,84.30
2023-02-27T05:08:11.344Z,84.70
2023-02-27T05:10:54.177Z,84.80
2023-02-27T05:13:40.434Z,84.90
2023-02-27T05:16:37.627Z,85.00
2023-02-27T05:19:05.984Z,85.20
2023-02-27T05:21:39.551Z,85.30
2023-02-27T05:24:37.481Z,85.20
2023-02-27T05:27:20.743Z,85.00
2023-02-27T05:29:59.778Z,85.10
2023-02-27T05:32:52.207Z,85.10
2023-02-27T05:35:31.796Z,85.20
2023-02-27T05:38:18.380Z,85.30
2023-02-27T05:40:53.413Z,85.40
2023-02-27T05:43:29.519Z,85.40
2023-02-27T05:46:01.729Z,85.40
2023-02-27T05:49:09.048Z,85.30
2023-02-27T05:51:38.917Z,85.20
2023-02-27T05:54:13.966Z,85.30
2023-02-27T05:56:47.081Z,85.40
2023-02-27T05:59:22.527Z,85.30
2023-02-27T06:01:50.638Z,85.40
2023-02-27T06:04:18.831Z,85.50
2023-02-27T06:06:47.033Z,85.50
2023-02-27T06:09:16.950Z,85.60
2023-02-27T06:11:44.895Z,85.70
2023-02-27T06:14:13.111Z,85.70
2023-02-27T06:16:41.459Z,85.60
2023-02-27T06:19:09.656Z,85.70
2023-02-27T06:21:37.578Z,85.70
2023-02-27T06:24:06.242Z,85.70
2023-02-27T06:26:33.872Z,85.80
2023-02-27T06:29:02.780Z,85.90
2023-02-27T06:31:30.600Z,85.70
2023-02-27T06:33:58.713Z,85.60
2023-02-27T06:36:26.682Z,85.60
2023-02-27T06:38:55.136Z,85.60
2023-02-27T06:41:23.018Z,85.80
2023-02-27T06:43:53.480Z,85.90
2023-02-27T06:46:21.980Z,85.90
2023-02-27T06:48:50.151Z,85.80
2023-02-27T06:51:18.119Z,85.70
2023-02-27T06:53:46.134Z,85.70
2023-02-27T06:56:14.061Z,85.80
2023-02-27T06:58:42.614Z,85.80
2023-02-27T07:01:10.586Z,85.70
2023-02-27T07:03:39.308Z,85.70
2023-02-27T07:06:07.417Z,85.60
2023-02-27T07:08:36.258Z,85.50
2023-02-27T07:11:04.144Z,85.70
2023-02-27T07:13:32.409Z,85.60
2023-02-27T07:16:00.426Z,85.60
2023-02-27T07:18:28.955Z,85.70
2023-02-27T07:20:56.576Z,85.70
2023-02-27T07:23:25.136Z,85.90
2023-02-27T07:25:52.919Z,85.90
2023-02-27T07:28:21.572Z,85.70
2023-02-27T07:30:49.306Z,85.50
2023-02-27T07:33:17.488Z,85.40
2023-02-27T07:35:46.623Z,85.50
2023-02-27T07:38:14.747Z,85.50
2023-02-27T07:40:42.621Z,85.70
2023-02-27T07:43:10.946Z,85.80
2023-02-27T07:45:38.557Z,85.50
2023-02-27T07:48:06.956Z,85.00
2023-02-27T07:50:35.162Z,85.00
2023-02-27T07:53:03.640Z,84.90
2023-02-27T07:55:31.868Z,85.30
2023-02-27T07:57:59.958Z,85.40
2023-02-27T08:00:28.066Z,85.20
2023-02-27T08:02:57.249Z,85.10
2023-02-27T08:05:25.005Z,84.90
2023-02-27T08:07:53.270Z,84.60
2023-02-27T08:10:21.150Z,84.60
2023-02-27T08:12:49.324Z,84.40
2023-02-27T08:15:18.751Z,84.60
2023-02-27T08:17:48.146Z,84.00
2023-02-27T08:20:16.324Z,83.80
2023-02-27T08:22:44.520Z,84.00
2023-02-27T08:25:12.648Z,84.30
2023-02-27T08:27:41.515Z,84.90
2023-02-27T08:30:11.466Z,85.00
2023-02-27T08:32:40.087Z,84.80
2023-02-27T08:35:08.182Z,85.10
2023-02-27T08:37:36.530Z,85.30
2023-02-27T08:40:07.491Z,85.10
2023-02-27T08:42:35.773Z,84.80
2023-02-27T08:45:04.452Z,85.10
2023-02-27T08:47:32.736Z,85.20
2023-02-27T08:50:00.815Z,84.90
2023-02-27T08:52:29.348Z,84.60
2023-02-27T08:54:57.129Z,84.10
2023-02-27T08:57:25.397Z,83.70
2023-02-27T08:59:53.064Z,84.10
2023-02-27T09:02:24.079Z,84.40
2023-02-27T09:04:52.375Z,84.30
2023-02-27T09:07:21.106Z,84.60
2023-02-27T09:09:50.077Z,83.80
2023-02-27T09:12:18.483Z,84.10
2023-02-27T09:14:46.394Z,85.40
2023-02-27T09:17:14.750Z,85.80
2023-02-27T09:19:42.577Z,85.90
2023-02-27T09:22:10.962Z,84.50
2023-02-27T09:24:39.081Z,85.00
2023-02-27T09:27:07.365Z,84.60
2023-02-27T09:29:35.179Z,83.00
2023-02-27T09:32:03.550Z,82.20
2023-02-27T09:34:31.411Z,81.60
2023-02-27T09:37:01.011Z,80.40
2023-02-27T09:39:30.429Z,80.00
2023-02-27T09:42:18.382Z,80.70
2023-02-27T09:45:39.583Z,80.90
2023-02-27T09:48:14.657Z,81.10
2023-02-27T09:50:48.988Z,80.70
2023-02-27T09:53:27.835Z,80.80
2023-02-27T09:56:03.904Z,80.70
2023-02-27T09:59:17.123Z,79.70
2023-02-27T10:01:52.992Z,80.40
2023-02-27T10:04:45.889Z,80.40
2023-02-27T10:07:47.881Z,80.90
2023-02-27T10:10:29.573Z,80.60
2023-02-27T10:13:35.049Z,80.80
2023-02-27T10:16:05.129Z,81.00
2023-02-27T10:18:49.328Z,81.00
2023-02-27T10:21:21.362Z,81.80
2023-02-27T10:24:11.398Z,80.80
2023-02-27T10:26:42.797Z,79.70
2023-02-27T10:29:32.988Z,80.10
2023-02-27T10:32:17.488Z,80.30
2023-02-27T10:34:54.766Z,80.00
2023-02-27T10:37:26.812Z,79.80
2023-02-27T10:39:58.959Z,78.20
2023-02-27T10:42:31.940Z,78.80
2023-02-27T10:44:59.910Z,78.40
2023-02-27T10:47:28.564Z,78.70
2023-02-27T10:49:56.776Z,79.70
2023-02-27T10:52:24.991Z,80.90
2023-02-27T10:54:53.358Z,80.90
2023-02-27T10:57:30.651Z,81.00
2023-02-27T11:00:01.671Z,80.50
2023-02-27T11:02:39.413Z,80.90
2023-02-27T11:05:30.484Z,81.40
2023-02-27T11:08:30.619Z,81.40
2023-02-27T11:11:12.500Z,81.60
2023-02-27T11:13:43.579Z,82.50
2023-02-27T11:16:22.130Z,83.30
2023-02-27T11:18:52.579Z,83.00
2023-02-27T11:21:24.405Z,82.60
2023-02-27T11:23:58.061Z,81.60
2023-02-27T11:26:30.066Z,79.90
2023-02-27T11:29:15.333Z,79.50
2023-02-27T11:31:52.237Z,77.70
2023-02-27T11:34:25.099Z,79.10
2023-02-27T11:36:57.062Z,79.80
2023-02-27T11:39:34.510Z,79.00
2023-02-27T11:42:29.242Z,78.10
2023-02-27T11:45:06.524Z,79.30
2023-02-27T11:47:38.000Z,79.80
2023-02-27T11:50:19.058Z,79.80
2023-02-27T11:53:05.804Z,80.70
2023-02-27T11:55:34.946Z,80.70
2023-02-27T11:58:12.389Z,80.20
2023-02-27T12:00:47.651Z,77.40
2023-02-27T12:03:27.395Z,78.20
2023-02-27T12:06:00.299Z,80.20
2023-02-27T12:08:50.106Z,78.70
2023-02-27T12:11:36.606Z,79.00
2023-02-27T12:14:23.871Z,81.10
2023-02-27T12:16:59.365Z,79.10
2023-02-27T12:19:44.612Z,77.70
2023-02-27T12:22:22.622Z,76.90
2023-02-27T12:24:56.322Z,75.50
2023-02-27T12:27:38.375Z,74.50
2023-02-27T12:30:29.615Z,73.60
2023-02-27T12:33:22.716Z,76.40
2023-02-27T12:35:56.319Z,77.70
2023-02-27T12:38:24.937Z,79.80
2023-02-27T12:41:07.568Z,81.10
2023-02-27T12:43:36.045Z,81.90
2023-02-27T12:46:57.417Z,82.60
2023-02-27T12:49:39.230Z,82.70
2023-02-27T12:52:25.697Z,83.00
2023-02-27T12:55:08.274Z,80.20
2023-02-27T12:58:01.575Z,77.50
2023-02-27T13:00:54.591Z,77.10
2023-02-27T13:03:30.401Z,78.60
2023-02-27T13:06:12.690Z,79.80
2023-02-27T13:09:19.773Z,80.70
2023-02-27T13:12:09.078Z,81.40
2023-02-27T13:15:17.338Z,81.60
2023-02-27T13:17:48.830Z,81.20
2023-02-27T13:20:22.603Z,81.60
2023-02-27T13:23:11.173Z,81.80
2023-02-27T13:25:41.648Z,82.20
2023-02-27T13:28:17.095Z,82.10
2023-02-27T13:31:08.531Z,81.50
2023-02-27T13:34:27.498Z,82.00
2023-02-27T13:37:06.752Z,82.10
2023-02-27T13:39:37.481Z,82.10
2023-02-27T13:42:26.139Z,83.10
2023-02-27T13:44:55.030Z,84.30
2023-02-27T13:47:31.408Z,86.40
2023-02-27T13:50:02.415Z,88.10
2023-02-27T13:52:35.820Z,88.30
2023-02-27T13:55:23.397Z,85.80
2023-02-27T13:57:53.952Z,80.50
2023-02-27T14:00:24.688Z,78.60
2023-02-27T14:03:17.782Z,77.20
2023-02-27T14:05:48.403Z,76.50
2023-02-27T14:08:20.560Z,76.00
2023-02-27T14:10:58.600Z,76.30
2023-02-27T14:13:51.622Z,76.90
2023-02-27T14:16:40.970Z,77.80
2023-02-27T14:19:18.172Z,78.20
2023-02-27T14:22:04.545Z,78.70
2023-02-27T14:24:44.801Z,80.00
2023-02-27T14:27:25.917Z,80.60
2023-02-27T14:29:58.055Z,80.70
2023-02-27T14:32:31.322Z,80.90
2023-02-27T14:35:00.509Z,81.10
2023-02-27T14:37:31.004Z,81.20
2023-02-27T14:40:03.292Z,81.70
2023-02-27T14:42:47.136Z,81.90
2023-02-27T14:45:25.758Z,82.60
2023-02-27T14:47:53.993Z,82.50
2023-02-27T14:50:37.798Z,82.20
2023-02-27T14:53:07.075Z,82.00
2023-02-27T14:55:38.006Z,81.90
2023-02-27T14:58:18.531Z,81.90
2023-02-27T15:00:58.491Z,82.00
2023-02-27T15:03:38.326Z,81.80
2023-02-27T15:06:24.410Z,83.50
2023-02-27T15:08:57.474Z,84.80
2023-02-27T15:11:26.552Z,84.40
2023-02-27T15:14:03.668Z,83.20
2023-02-27T15:16:41.235Z,82.00
2023-02-27T15:19:22.264Z,80.80
2023-02-27T15:22:05.071Z,80.80
2023-02-27T15:24:49.348Z,81.10
2023-02-27T15:27:23.937Z,81.20
2023-02-27T15:29:57.957Z,81.10
2023-02-27T15:32:39.362Z,80.70
2023-02-27T15:35:32.836Z,79.40
2023-02-27T15:38:02.680Z,79.90
2023-02-27T15:40:33.436Z,79.70
2023-02-27T15:43:02.176Z,79.70
2023-02-27T15:45:35.912Z,80.20
2023-02-27T15:48:05.381Z,80.30
2023-02-27T15:50:43.630Z,80.30
2023-02-27T15:53:34.351Z,80.50
2023-02-27T15:56:06.622Z,80.50
2023-02-27T15:58:35.910Z,80.40
2023-02-27T16:01:09.495Z,80.50
2023-02-27T16:03:46.458Z,79.80
2023-02-27T16:06:22.585Z,80.00
2023-02-27T16:08:57.505Z,80.00
2023-02-27T16:11:28.867Z,80.00
2023-02-27T16:13:58.064Z,80.20
2023-02-27T16:16:36.469Z,80.30
2023-02-27T16:19:31.104Z,80.40
2023-02-27T16:22:20.179Z,80.40
2023-02-27T16:24:50.078Z,80.40
2023-02-27T16:27:32.191Z,80.50
2023-02-27T16:30:03.296Z,80.50
2023-02-27T16:32:38.613Z,80.60
2023-02-27T16:35:16.913Z,80.50
2023-02-27T16:37:46.599Z,80.50
2023-02-27T16:40:22.831Z,80.50
2023-02-27T16:42:52.679Z,80.60
2023-02-27T16:45:27.035Z,80.70
2023-02-27T16:47:58.980Z,80.70
2023-02-27T16:50:36.187Z,80.70
2023-02-27T16:53:05.582Z,80.70
2023-02-27T16:55:34.653Z,80.70
2023-02-27T16:58:03.221Z,80.70
2023-02-27T17:00:31.345Z,80.70
2023-02-27T17:02:59.558Z,80.70
2023-02-27T17:05:27.940Z,80.70
2023-02-27T17:07:56.684Z,80.80
2023-02-27T17:10:26.064Z,80.80
2023-02-27T17:12:57.673Z,80.90
2023-02-27T17:15:28.204Z,80.80
2023-02-27T17:17:57.438Z,80.80
2023-02-27T17:20:29.816Z,80.70
2023-02-27T17:23:00.093Z,80.70
2023-02-27T17:25:28.696Z,80.70
2023-02-27T17:27:58.343Z,80.70
2023-02-27T17:30:27.107Z,80.80
2023-02-27T17:32:58.749Z,80.70
2023-02-27T17:35:30.834Z,80.70
2023-02-27T17:37:59.995Z,80.70
2023-02-27T17:40:28.892Z,80.80
2023-02-27T17:42:58.949Z,80.70
2023-02-27T17:45:28.278Z,80.70
2023-02-27T17:47:59.253Z,80.70
2023-02-27T17:50:27.725Z,80.70
2023-02-27T17:52:57.694Z,80.70
2023-02-27T17:55:29.973Z,80.70
2023-02-27T17:57:59.713Z,80.70
2023-02-27T18:00:29.297Z,80.60
2023-02-27T18:02:58.839Z,80.50
2023-02-27T18:05:29.221Z,80.60
2023-02-27T18:08:00.209Z,80.50
2023-02-27T18:10:30.838Z,80.50
2023-02-27T18:13:06.236Z,80.40
2023-02-27T18:15:36.161Z,80.40
2023-02-27T18:18:07.169Z,80.30
2023-02-27T18:20:36.808Z,80.40
2023-02-27T18:23:13.423Z,80.40
2023-02-27T18:25:42.602Z,80.40
2023-02-27T18:28:13.017Z,80.40
2023-02-27T18:30:43.276Z,80.40
2023-02-27T18:33:14.970Z,80.50
2023-02-27T18:35:45.968Z,80.50
2023-02-27T18:38:17.394Z,80.50
2023-02-27T18:40:46.701Z,80.60
2023-02-27T18:43:22.790Z,80.60
2023-02-27T18:45:52.833Z,80.50
2023-02-27T18:48:23.892Z,80.50
2023-02-27T18:51:05.410Z,80.50
2023-02-27T18:53:37.232Z,80.40
2023-02-27T18:56:09.548Z,80.50
2023-02-27T18:58:41.086Z,80.40
2023-02-27T19:01:20.295Z,80.40
2023-02-27T19:04:01.145Z,80.40
2023-02-27T19:06:42.928Z,80.50
2023-02-27T19:09:17.251Z,80.50
2023-02-27T19:11:48.612Z,80.50
2023-02-27T19:14:24.725Z,80.40
2023-02-27T19:16:54.534Z,80.40
2023-02-27T19:19:24.895Z,80.40
2023-02-27T19:21:55.634Z,80.40
2023-02-27T19:24:28.103Z,80.20
2023-02-27T19:26:58.569Z,80.10
2023-02-27T19:29:40.699Z,80.00
2023-02-27T19:32:11.904Z,80.00
2023-02-27T19:34:43.918Z,79.90
2023-02-27T19:37:13.737Z,79.90
2023-02-27T19:39:44.015Z,79.90
2023-02-27T19:42:13.014Z,80.00
2023-02-27T19:44:43.652Z,80.00
2023-02-27T19:47:15.460Z,80.00
2023-02-27T19:49:47.002Z,80.00
2023-02-27T19:52:18.128Z,80.10
2023-02-27T19:54:47.892Z,80.10
2023-02-27T19:57:17.781Z,80.20
2023-02-27T19:59:50.306Z,80.20
2023-02-27T20:02:19.406Z,80.40
2023-02-27T20:04:54.378Z,80.40
2023-02-27T20:07:28.371Z,80.50
2023-02-27T20:10:00.512Z,80.50
2023-02-27T20:12:30.262Z,80.50
2023-02-27T20:15:08.769Z,80.60
2023-02-27T20:17:42.382Z,80.60
2023-02-27T20:20:14.985Z,80.50
2023-02-27T20:22:45.500Z,80.60
2023-02-27T20:25:14.498Z,80.70
2023-02-27T20:27:44.211Z,80.50
2023-02-27T20:30:17.136Z,80.70
2023-02-27T20:32:47.169Z,80.70
2023-02-27T20:35:19.357Z,80.70
2023-02-27T20:37:48.809Z,80.60
2023-02-27T20:40:20.167Z,80.70
2023-02-27T20:42:48.861Z,80.70
2023-02-27T20:45:19.934Z,80.70
2023-02-27T20:47:50.534Z,80.80
2023-02-27T20:50:21.531Z,80.80
2023-02-27T20:52:55.122Z,80.80
2023-02-27T20:55:25.450Z,80.70
2023-02-27T20:57:57.559Z,80.80
2023-02-27T21:00:29.475Z,80.70
2023-02-27T21:02:58.246Z,80.70
2023-02-27T21:05:28.137Z,80.80
2023-02-27T21:07:57.246Z,80.80
2023-02-27T21:10:27.754Z,80.80
2023-02-27T21:12:56.439Z,80.70
2023-02-27T21:15:26.597Z,80.70
2023-02-27T21:17:55.837Z,80.80
2023-02-27T21:20:24.801Z,80.90
2023-02-27T21:22:58.454Z,80.90
2023-02-27T21:25:30.510Z,80.90
2023-02-27T21:28:04.436Z,80.90
2023-02-27T21:30:33.095Z,80.90
2023-02-27T21:33:04.267Z,81.00
2023-02-27T21:35:36.807Z,81.00
2023-02-27T21:38:06.406Z,81.20
2023-02-27T21:40:36.419Z,81.20
2023-02-27T21:43:04.516Z,81.10
2023-02-27T21:45:32.616Z,81.10
2023-02-27T21:48:01.606Z,81.20
2023-02-27T21:50:29.851Z,81.20
2023-02-27T21:52:57.546Z,81.30
2023-02-27T21:55:26.274Z,81.20
2023-02-27T21:57:54.096Z,81.30
2023-02-27T22:00:27.036Z,81.40
2023-02-27T22:02:54.788Z,81.30
2023-02-27T22:05:27.262Z,81.20
2023-02-27T22:07:55.025Z,81.30
2023-02-27T22:10:23.354Z,81.20
2023-02-27T22:12:52.523Z,81.00
2023-02-27T22:15:22.343Z,81.10
2023-02-27T22:17:53.046Z,81.10
2023-02-27T22:20:21.192Z,81.10
2023-02-27T22:22:48.916Z,81.10
2023-02-27T22:25:18.733Z,81.20
2023-02-27T22:27:47.236Z,81.30
2023-02-27T22:30:16.457Z,81.30
2023-02-27T22:32:44.391Z,81.20
2023-02-27T22:35:12.318Z,81.30
2023-02-27T22:37:40.306Z,81.40
2023-02-27T22:40:11.241Z,81.30
2023-02-27T22:42:40.142Z,81.20
2023-02-27T22:45:08.805Z,81.20
2023-02-27T22:47:36.676Z,81.20
2023-02-27T22:50:06.714Z,81.20
2023-02-27T22:52:38.158Z,81.30
2023-02-27T22:55:07.494Z,81.30
2023-02-27T22:57:35.285Z,81.30
2023-02-27T23:00:06.169Z,81.30
2023-02-27T23:02:35.279Z,81.40
2023-02-27T23:05:03.494Z,81.40
2023-02-27T23:07:31.677Z,81.30
2023-02-27T23:09:59.713Z,81.30
2023-02-27T23:12:29.113Z,81.30
2023-02-27T23:14:57.771Z,81.30
2023-02-27T23:17:25.620Z,81.30
2023-02-27T23:19:56.235Z,81.30
2023-02-27T23:22:25.876Z,81.30
2023-02-27T23:24:54.265Z,81.30
2023-02-27T23:27:26.276Z,81.30
2023-02-27T23:29:56.391Z,81.30
2023-02-27T23:32:24.861Z,81.30
2023-02-27T23:34:53.000Z,81.30
2023-02-27T23:37:20.806Z,81.30
2023-02-27T23:39:48.967Z,81.20
2023-02-27T23:42:36.704Z,81.20
2023-02-27T23:45:24.336Z,81.20
2023-02-27T23:47:54.524Z,81.20
2023-02-27T23:50:25.699Z,81.20
2023-02-27T23:52:55.836Z,81.20
2023-02-27T23:55:26.659Z,81.20
2023-02-27T23:57:59.106Z,81.20
